Time;durP1;ratioP1;P1;durP2;ratioP2;P2;SDS_P1;SDS_P2;PMS_P1;PMS_P2;Temp;Humidity;BMP_temperature;BMP_pressure;BME280_temperature;BME280_humidity;BME280_pressure;Samples;Min_cycle;Max_cycle;Signal;HPM_P1;HPM_P2
2022/05/11 00:01:34;;;;;;;15.57;4.15;;;14.60;99.90;;;;;;5050487;28;20033;-62
2022/05/11 00:04:01;;;;;;;15.00;3.40;;;14.60;99.90;;;;;;5050173;28;20074;-62
2022/05/11 00:06:28;;;;;;;14.95;4.28;;;14.60;99.90;;;;;;5051386;28;20029;-62
2022/05/11 00:08:55;;;;;;;13.80;4.15;;;14.60;99.90;;;;;;5050242;28;20021;-62
2022/05/11 00:11:23;;;;;;;17.58;4.93;;;14.70;99.90;;;;;;5051489;28;20419;-63
2022/05/11 00:13:49;;;;;;;15.88;4.47;;;14.70;99.90;;;;;;5052017;28;20033;-61
2022/05/11 00:16:16;;;;;;;19.75;4.80;;;14.70;99.90;;;;;;5055042;28;20372;-65
2022/05/11 00:18:42;;;;;;;15.20;4.10;;;14.70;99.90;;;;;;5055237;28;20029;-60
2022/05/11 00:21:08;;;;;;;13.32;4.70;;;14.70;99.90;;;;;;5054788;28;20108;-66
2022/05/11 00:23:34;;;;;;;15.15;4.55;;;14.70;99.90;;;;;;5055413;28;20045;-65
2022/05/11 00:26:00;;;;;;;16.00;4.50;;;14.70;99.90;;;;;;5055238;28;20053;-66
2022/05/11 00:28:25;;;;;;;14.93;4.13;;;14.70;99.90;;;;;;5054967;28;20021;-62
2022/05/11 00:30:51;;;;;;;12.05;3.45;;;14.70;99.90;;;;;;5055141;28;20139;-64
2022/05/11 00:33:18;;;;;;;16.05;4.47;;;14.70;99.90;;;;;;5054620;28;20081;-65
2022/05/11 00:35:46;;;;;;;13.55;4.07;;;14.70;99.90;;;;;;5054444;28;20453;-64
2022/05/11 00:38:12;;;;;;;14.65;4.07;;;14.70;99.90;;;;;;5054793;28;20465;-63
2022/05/11 00:40:47;;;;;;;14.63;4.40;;;14.70;99.90;;;;;;5054814;28;20033;-67
2022/05/11 00:43:13;;;;;;;11.70;2.97;;;14.70;99.90;;;;;;5055056;28;20032;-66
2022/05/11 00:45:48;;;;;;;14.07;3.70;;;14.70;99.90;;;;;;5054863;28;20021;-65
2022/05/11 00:51:13;;;;;;;17.17;5.05;;;14.70;99.90;;;;;;5054978;28;20044;-63
2022/05/11 00:53:43;;;;;;;9.93;3.63;;;14.80;99.90;;;;;;5054396;28;20048;-65
2022/05/11 00:56:09;;;;;;;10.05;3.50;;;14.80;99.90;;;;;;5054248;28;20466;-61
2022/05/11 00:58:41;;;;;;;14.20;4.10;;;14.80;99.90;;;;;;5054417;28;20534;-61
2022/05/11 01:01:08;;;;;;;14.68;3.50;;;14.80;99.90;;;;;;5054121;28;20037;-64
2022/05/11 01:03:39;;;;;;;15.88;3.72;;;14.80;99.90;;;;;;5054467;28;20021;-64
2022/05/11 01:06:08;;;;;;;15.03;3.57;;;14.70;99.90;;;;;;5054788;28;20017;-65
2022/05/11 01:08:33;;;;;;;13.43;3.50;;;14.70;99.90;;;;;;5054072;28;20602;-65
2022/05/11 01:11:05;;;;;;;14.95;4.10;;;14.70;99.90;;;;;;5054240;28;20029;-63
2022/05/11 01:13:32;;;;;;;14.20;3.90;;;14.60;99.90;;;;;;5054314;28;20048;-63
2022/05/11 01:16:00;;;;;;;11.30;3.20;;;14.60;99.90;;;;;;5054313;28;20315;-67
2022/05/11 01:18:27;;;;;;;18.90;4.78;;;14.60;99.90;;;;;;5052711;28;20025;-64
2022/05/11 01:20:53;;;;;;;13.02;3.90;;;14.70;99.90;;;;;;5053975;28;20021;-64
2022/05/11 01:23:40;;;;;;;9.57;3.92;;;14.60;99.90;;;;;;5054174;28;20070;-64
2022/05/11 01:26:06;;;;;;;15.98;3.60;;;14.60;99.90;;;;;;5053124;28;20025;-64
2022/05/11 01:28:31;;;;;;;12.10;3.50;;;14.60;99.90;;;;;;5053889;28;20037;-63
2022/05/11 01:31:06;;;;;;;13.98;3.90;;;14.60;99.90;;;;;;5053723;28;20025;-64
2022/05/11 01:33:34;;;;;;;16.00;4.13;;;14.60;99.90;;;;;;5053867;28;20037;-64
2022/05/11 01:36:08;;;;;;;11.25;3.45;;;14.50;99.90;;;;;;5053618;28;20025;-64
2022/05/11 01:38:43;;;;;;;16.55;4.95;;;14.50;99.90;;;;;;5053925;28;20454;-64
2022/05/11 01:41:14;;;;;;;12.82;3.50;;;14.60;99.90;;;;;;5053644;28;20021;-64
2022/05/11 01:43:40;;;;;;;12.43;4.10;;;14.60;99.90;;;;;;5053815;28;20029;-64
2022/05/11 01:46:06;;;;;;;15.27;4.10;;;14.60;99.90;;;;;;5053805;28;20031;-61
2022/05/11 01:48:32;;;;;;;16.27;3.80;;;14.60;99.90;;;;;;5053465;28;20032;-63
2022/05/11 01:50:59;;;;;;;18.05;4.88;;;14.60;99.90;;;;;;5053885;28;20021;-63
2022/05/11 01:53:25;;;;;;;18.80;4.55;;;14.50;99.90;;;;;;5053789;28;20036;-66
2022/05/11 01:55:51;;;;;;;14.60;3.42;;;14.60;99.90;;;;;;5052631;28;20151;-62
2022/05/11 01:58:18;;;;;;;13.52;4.00;;;14.60;99.90;;;;;;5053728;28;20124;-66
2022/05/11 02:00:46;;;;;;;12.77;4.13;;;14.60;99.90;;;;;;5052272;28;20025;-65
2022/05/11 02:03:12;;;;;;;16.95;4.65;;;14.60;99.90;;;;;;5053448;28;20449;-64
2022/05/11 02:08:22;;;;;;;15.60;4.28;;;14.60;99.90;;;;;;5053375;28;20056;-65
2022/05/11 02:10:47;;;;;;;15.45;4.80;;;14.50;99.90;;;;;;5053760;28;20453;-66
2022/05/11 02:13:14;;;;;;;12.82;4.65;;;14.50;99.90;;;;;;5053291;28;20112;-67
2022/05/11 02:15:39;;;;;;;17.00;4.45;;;14.60;99.90;;;;;;5053048;28;20029;-65
2022/05/11 02:18:06;;;;;;;17.25;4.13;;;14.60;99.90;;;;;;5053390;28;20187;-66
2022/05/11 02:20:32;;;;;;;15.48;4.03;;;14.50;99.90;;;;;;5053777;28;20029;-62
2022/05/11 02:22:58;;;;;;;13.85;4.00;;;14.50;99.90;;;;;;5053509;28;20178;-62
2022/05/11 02:25:24;;;;;;;17.92;4.15;;;14.50;99.90;;;;;;5053615;28;20044;-65
2022/05/11 02:27:51;;;;;;;16.30;4.63;;;14.50;99.90;;;;;;5053313;28;20449;-67
2022/05/11 02:30:24;;;;;;;17.02;3.72;;;14.60;99.90;;;;;;5052593;28;20040;-63
2022/05/11 02:32:50;;;;;;;16.90;3.95;;;14.60;99.90;;;;;;5053030;28;20032;-62
2022/05/11 02:35:17;;;;;;;15.13;3.63;;;14.50;99.90;;;;;;5053145;28;20523;-61
2022/05/11 02:37:45;;;;;;;14.90;3.58;;;14.50;99.90;;;;;;5052869;28;20043;-63
2022/05/11 02:40:14;;;;;;;14.57;3.92;;;14.50;99.90;;;;;;5052762;28;20047;-66
2022/05/11 02:42:40;;;;;;;15.35;4.13;;;14.40;99.90;;;;;;5052790;28;20044;-65
2022/05/11 02:45:06;;;;;;;14.02;3.60;;;14.50;99.90;;;;;;5052926;28;20063;-62
2022/05/11 02:47:32;;;;;;;11.93;3.28;;;14.40;99.90;;;;;;5052827;28;20369;-63
2022/05/11 02:49:58;;;;;;;14.05;3.80;;;14.50;99.90;;;;;;5052923;28;20032;-64
2022/05/11 02:52:24;;;;;;;15.05;3.80;;;14.40;99.90;;;;;;5052898;28;20017;-62
2022/05/11 02:54:49;;;;;;;11.52;3.55;;;14.50;99.90;;;;;;5052818;28;20059;-66
2022/05/11 02:57:16;;;;;;;12.10;3.67;;;14.50;99.90;;;;;;5052489;28;20048;-66
2022/05/11 02:59:43;;;;;;;13.70;3.38;;;14.50;99.90;;;;;;5052600;28;20025;-66
2022/05/11 03:02:09;;;;;;;16.88;3.70;;;14.50;99.90;;;;;;5052725;28;20028;-62
2022/05/11 03:04:35;;;;;;;12.57;3.22;;;14.40;99.90;;;;;;5053031;28;20032;-64
2022/05/11 03:07:00;;;;;;;17.02;3.35;;;14.50;99.90;;;;;;5052413;28;20079;-64
2022/05/11 03:09:26;;;;;;;14.98;3.42;;;14.50;99.90;;;;;;5052384;28;20461;-64
2022/05/11 03:11:52;;;;;;;10.90;2.40;;;14.50;99.90;;;;;;5051003;28;20342;-60
2022/05/11 03:14:17;;;;;;;13.68;3.65;;;14.40;99.90;;;;;;5052488;28;20037;-61
2022/05/11 03:16:43;;;;;;;10.15;2.58;;;14.40;99.90;;;;;;5052325;28;20040;-62
2022/05/11 03:19:09;;;;;;;15.50;3.60;;;14.40;99.90;;;;;;5052521;28;20017;-62
2022/05/11 03:21:34;;;;;;;14.88;3.00;;;14.30;99.90;;;;;;5052637;28;20029;-63
2022/05/11 03:24:00;;;;;;;18.00;3.72;;;14.30;99.90;;;;;;5052300;28;20504;-62
2022/05/11 03:26:26;;;;;;;19.38;3.63;;;14.30;99.90;;;;;;5052139;28;20441;-62
2022/05/11 03:28:52;;;;;;;21.02;4.13;;;14.20;99.90;;;;;;5050929;28;20060;-62
2022/05/11 03:31:18;;;;;;;17.20;3.25;;;14.20;99.90;;;;;;5052576;28;20017;-61
2022/05/11 03:36:29;;;;;;;11.68;2.70;;;14.20;99.90;;;;;;5052380;28;20527;-61
2022/05/11 03:38:55;;;;;;;13.73;3.47;;;14.20;99.90;;;;;;5050813;28;20064;-63
2022/05/11 03:41:20;;;;;;;10.93;2.97;;;14.10;99.90;;;;;;5052011;28;20108;-62
2022/05/11 03:43:46;;;;;;;15.60;3.55;;;14.10;99.90;;;;;;5051990;28;20029;-62
2022/05/11 03:46:12;;;;;;;16.25;3.17;;;14.20;99.90;;;;;;5051122;28;20025;-62
2022/05/11 03:48:37;;;;;;;12.85;3.17;;;14.20;99.90;;;;;;5052260;28;20021;-62
2022/05/11 03:51:04;;;;;;;10.70;3.28;;;14.20;99.90;;;;;;5055935;28;20520;-61
2022/05/11 03:53:31;;;;;;;13.50;2.85;;;14.20;99.90;;;;;;5055407;28;20041;-62
2022/05/11 03:55:56;;;;;;;16.25;3.22;;;14.20;99.90;;;;;;5055736;28;20449;-61
2022/05/11 03:58:22;;;;;;;11.40;2.92;;;14.20;99.90;;;;;;5055792;28;20021;-62
2022/05/11 04:00:48;;;;;;;13.52;3.08;;;14.20;99.90;;;;;;5055593;28;20033;-61
2022/05/11 04:03:13;;;;;;;9.52;2.30;;;14.20;99.90;;;;;;5055612;28;20032;-62
2022/05/11 04:05:39;;;;;;;17.02;4.15;;;14.20;99.90;;;;;;5055485;28;20021;-61
2022/05/11 04:08:04;;;;;;;14.52;3.80;;;14.20;99.90;;;;;;5055528;28;20036;-62
2022/05/11 04:10:30;;;;;;;17.00;3.55;;;14.20;99.90;;;;;;5055499;28;20025;-62
2022/05/11 04:12:55;;;;;;;10.63;2.95;;;14.20;99.90;;;;;;5055054;28;20033;-61
2022/05/11 04:15:21;;;;;;;16.90;3.28;;;14.20;99.90;;;;;;5055143;28;20029;-62
2022/05/11 04:17:47;;;;;;;16.00;3.08;;;14.20;99.90;;;;;;5054802;28;20021;-62
2022/05/11 04:20:18;;;;;;;9.27;2.70;;;14.20;99.90;;;;;;5054931;28;20103;-61
2022/05/11 04:22:43;;;;;;;11.70;3.13;;;14.20;99.90;;;;;;5055006;28;20097;-61
2022/05/11 04:25:14;;;;;;;18.90;5.15;;;14.20;99.90;;;;;;5054647;28;20025;-61
2022/05/11 04:27:40;;;;;;;20.30;4.45;;;14.20;99.90;;;;;;5055078;28;20028;-61
2022/05/11 04:30:07;;;;;;;17.65;3.03;;;14.20;99.90;;;;;;5054617;28;20120;-62
2022/05/11 04:32:32;;;;;;;17.77;5.03;;;14.20;99.90;;;;;;5054980;28;20112;-62
2022/05/11 04:34:58;;;;;;;15.85;5.13;;;14.30;99.90;;;;;;5054873;28;20785;-61
2022/05/11 04:37:24;;;;;;;19.92;4.35;;;14.30;99.90;;;;;;5055166;28;20029;-63
2022/05/11 04:39:50;;;;;;;16.25;4.10;;;14.30;99.90;;;;;;5054912;28;20346;-63
2022/05/11 04:42:16;;;;;;;15.75;4.78;;;14.30;99.90;;;;;;5055110;28;20074;-62
2022/05/11 04:44:42;;;;;;;16.38;5.13;;;14.40;99.90;;;;;;5054518;28;20029;-63
2022/05/11 04:47:10;;;;;;;20.13;5.97;;;14.40;99.90;;;;;;5054538;28;20036;-63
2022/05/11 04:49:35;;;;;;;16.73;3.78;;;14.50;99.90;;;;;;5054516;28;20029;-62
2022/05/11 04:52:07;;;;;;;17.90;5.47;;;14.50;99.90;;;;;;5054365;28;20043;-62
2022/05/11 04:54:38;;;;;;;19.30;5.25;;;14.50;99.90;;;;;;5053863;28;20032;-63
2022/05/11 04:57:05;;;;;;;16.45;3.70;;;14.50;99.90;;;;;;5053838;28;20032;-63
2022/05/11 04:59:32;;;;;;;12.27;4.32;;;14.60;99.90;;;;;;5054782;28;20445;-63
2022/05/11 05:01:59;;;;;;;22.30;6.68;;;14.60;99.90;;;;;;5054295;28;20465;-63
2022/05/11 05:04:27;;;;;;;17.80;4.07;;;14.50;99.90;;;;;;5054090;28;20040;-61
2022/05/11 05:06:53;;;;;;;17.85;4.72;;;14.50;99.90;;;;;;5054488;28;20025;-65
2022/05/11 05:09:19;;;;;;;14.23;3.55;;;14.50;99.90;;;;;;5054331;28;20052;-62
2022/05/11 05:11:45;;;;;;;11.95;3.10;;;14.50;99.90;;;;;;5052989;28;20500;-64
2022/05/11 05:14:11;;;;;;;13.10;2.60;;;14.50;99.90;;;;;;5054076;28;20081;-61
2022/05/11 05:16:37;;;;;;;12.48;3.58;;;14.50;99.90;;;;;;5053942;28;20070;-64
2022/05/11 05:19:03;;;;;;;17.60;5.25;;;14.60;99.90;;;;;;5052168;28;20017;-63
2022/05/11 05:21:29;;;;;;;19.83;4.55;;;14.60;99.90;;;;;;5053932;28;20029;-65
2022/05/11 05:23:54;;;;;;;17.38;3.90;;;14.60;99.90;;;;;;5054001;28;20404;-64
2022/05/11 05:26:20;;;;;;;18.45;3.38;;;14.70;99.90;;;;;;5053816;28;20106;-62
2022/05/11 05:31:31;;;;;;;17.23;4.70;;;14.80;99.90;;;;;;5053609;28;20029;-62
2022/05/11 05:34:00;;;;;;;15.25;4.75;;;14.80;99.90;;;;;;5054002;28;20044;-61
2022/05/11 05:36:28;;;;;;;19.45;4.28;;;14.90;99.90;;;;;;5049379;28;20104;-62
2022/05/11 05:38:54;;;;;;;17.05;3.60;;;15.00;99.90;;;;;;5053350;28;20016;-64
2022/05/11 05:41:20;;;;;;;20.10;4.88;;;15.00;99.90;;;;;;5053151;28;20511;-61
2022/05/11 05:43:45;;;;;;;17.60;3.20;;;15.00;99.90;;;;;;5053391;28;20036;-66
2022/05/11 05:46:11;;;;;;;15.85;3.15;;;15.10;99.90;;;;;;5051671;28;20017;-62
2022/05/11 05:48:37;;;;;;;16.58;2.80;;;15.20;99.90;;;;;;5053611;28;20024;-64
2022/05/11 05:51:08;;;;;;;16.85;3.63;;;15.20;99.90;;;;;;5053323;28;20017;-63
2022/05/11 05:53:35;;;;;;;14.37;3.20;;;15.30;99.90;;;;;;5053327;28;20428;-63
2022/05/11 05:56:00;;;;;;;14.35;3.13;;;15.40;99.90;;;;;;5053078;28;20736;-63
2022/05/11 05:58:27;;;;;;;19.05;4.13;;;15.50;99.90;;;;;;5053220;28;20075;-63
2022/05/11 06:00:53;;;;;;;11.70;3.28;;;15.50;99.90;;;;;;5051868;28;20079;-62
2022/05/11 06:03:23;;;;;;;19.90;3.08;;;15.50;99.90;;;;;;5053028;28;20823;-64
2022/05/11 06:05:49;;;;;;;16.75;3.15;;;15.50;99.90;;;;;;5052776;28;20112;-63
2022/05/11 06:08:16;;;;;;;15.95;3.83;;;15.50;99.90;;;;;;5052897;28;20035;-63
2022/05/11 06:10:42;;;;;;;14.23;3.13;;;15.50;99.90;;;;;;5052311;28;20013;-62
2022/05/11 06:13:08;;;;;;;12.98;3.03;;;15.50;99.90;;;;;;5051630;28;20032;-62
2022/05/11 06:15:35;;;;;;;18.15;3.25;;;15.50;99.90;;;;;;5052644;28;20105;-62
2022/05/11 06:18:01;;;;;;;15.63;4.03;;;15.50;99.90;;;;;;5052965;28;20438;-62
2022/05/11 06:20:27;;;;;;;14.75;3.50;;;15.50;99.90;;;;;;5050647;28;20028;-62
2022/05/11 06:22:53;;;;;;;17.98;3.22;;;15.50;99.90;;;;;;5052514;28;20390;-62
2022/05/11 06:25:20;;;;;;;15.90;3.50;;;15.60;99.90;;;;;;5052725;28;20025;-63
2022/05/11 06:27:46;;;;;;;16.63;3.13;;;15.60;99.90;;;;;;5052347;28;20473;-63
2022/05/11 06:30:12;;;;;;;15.70;2.67;;;15.60;99.90;;;;;;5052480;28;20101;-63
2022/05/11 06:32:37;;;;;;;16.60;3.47;;;15.70;99.90;;;;;;5052789;28;20037;-65
2022/05/11 06:35:03;;;;;;;21.08;3.58;;;15.90;99.90;;;;;;5053337;28;20082;-62
2022/05/11 06:37:29;;;;;;;12.32;3.22;;;16.10;99.90;;;;;;5051413;28;20052;-62
2022/05/11 06:39:55;;;;;;;15.50;3.30;;;16.40;99.90;;;;;;5052805;28;20547;-62
2022/05/11 06:42:21;;;;;;;16.02;3.05;;;16.50;99.90;;;;;;5052458;28;20017;-62
2022/05/11 06:44:49;;;;;;;19.80;3.13;;;16.70;99.90;;;;;;5052832;28;20096;-64
2022/05/11 06:47:17;;;;;;;17.65;3.53;;;16.60;99.90;;;;;;5052402;28;20394;-65
2022/05/11 06:49:43;;;;;;;15.75;3.80;;;16.60;99.90;;;;;;5052281;28;20025;-62
2022/05/11 06:52:10;;;;;;;13.77;3.05;;;16.70;99.90;;;;;;5052774;28;20029;-63
2022/05/11 07:00:06;;;;;;;12.55;2.75;;;17.30;99.90;;;;;;5052712;28;20031;-62
2022/05/11 07:02:34;;;;;;;12.55;3.13;;;18.10;99.90;;;;;;5049852;28;20456;-62
2022/05/11 07:05:01;;;;;;;18.50;5.20;;;18.80;99.90;;;;;;5049153;28;20017;-63
2022/05/11 07:07:26;;;;;;;14.52;4.40;;;19.20;99.90;;;;;;5046504;28;20041;-65
2022/05/11 07:09:52;;;;;;;19.25;3.88;;;19.20;99.90;;;;;;5049412;28;20040;-62
2022/05/11 07:12:17;;;;;;;16.88;3.40;;;18.90;99.90;;;;;;5051753;28;20085;-62
2022/05/11 07:14:49;;;;;;;19.25;4.65;;;19.00;99.90;;;;;;5051797;28;20021;-65
2022/05/11 07:17:24;;;;;;;14.93;3.55;;;19.20;99.90;;;;;;5051737;28;20207;-61
2022/05/11 07:19:49;;;;;;;12.43;3.30;;;19.50;99.90;;;;;;5047786;28;20079;-62
2022/05/11 07:22:15;;;;;;;16.30;3.67;;;19.70;99.90;;;;;;5051385;28;20040;-62
2022/05/11 07:24:42;;;;;;;15.32;2.80;;;19.50;99.90;;;;;;5052227;28;20040;-62
2022/05/11 07:27:08;;;;;;;17.35;3.60;;;19.40;99.90;;;;;;5055809;28;20021;-66
2022/05/11 07:29:34;;;;;;;16.42;3.15;;;19.40;99.90;;;;;;5055691;28;20045;-62
2022/05/11 07:31:59;;;;;;;16.63;2.83;;;19.40;99.90;;;;;;5055186;28;20078;-65
2022/05/11 07:34:25;;;;;;;22.58;3.83;;;19.20;99.90;;;;;;5055549;28;20106;-65
2022/05/11 07:36:54;;;;;;;14.50;2.92;;;19.00;99.90;;;;;;5055546;28;20035;-62
2022/05/11 07:39:21;;;;;;;19.20;4.05;;;19.10;99.90;;;;;;5055876;28;20025;-67
2022/05/11 07:41:47;;;;;;;20.30;4.38;;;18.90;99.90;;;;;;5055111;28;20045;-63
2022/05/11 07:44:12;;;;;;;23.08;5.82;;;18.70;99.90;;;;;;5055653;28;20062;-62
2022/05/11 07:46:38;;;;;;;17.73;3.20;;;18.60;99.90;;;;;;5055611;28;20373;-63
2022/05/11 07:49:05;;;;;;;14.73;2.38;;;18.60;99.90;;;;;;5055844;28;20033;-64
2022/05/11 07:51:31;;;;;;;18.98;3.67;;;18.50;99.90;;;;;;5055222;28;20017;-62
2022/05/11 07:53:57;;;;;;;19.13;2.90;;;18.70;99.90;;;;;;5054715;28;20040;-63
2022/05/11 08:01:51;;;;;;;12.05;3.03;;;18.80;99.90;;;;;;5054001;28;20052;-63
2022/05/11 08:04:16;;;;;;;16.60;3.75;;;18.90;99.90;;;;;;5054688;28;20017;-62
2022/05/11 08:06:42;;;;;;;15.60;3.38;;;19.10;99.90;;;;;;5054438;28;20419;-62
2022/05/11 08:09:08;;;;;;;15.35;3.40;;;19.00;99.90;;;;;;5053489;28;20032;-62
2022/05/11 08:11:33;;;;;;;15.82;2.90;;;19.20;99.90;;;;;;5053736;28;20114;-62
2022/05/11 08:13:59;;;;;;;18.83;3.55;;;19.70;99.90;;;;;;5052392;28;20041;-62
2022/05/11 08:16:26;;;;;;;16.00;2.95;;;19.90;99.90;;;;;;5053871;28;20105;-62
2022/05/11 08:18:52;;;;;;;12.32;3.05;;;20.40;99.90;;;;;;5053717;28;20013;-62
2022/05/11 08:21:19;;;;;;;20.83;2.83;;;21.40;99.80;;;;;;5052388;28;20510;-64
2022/05/11 08:23:45;;;;;;;16.48;3.10;;;21.90;98.50;;;;;;5052913;28;20021;-63
2022/05/11 08:26:10;;;;;;;16.88;3.13;;;22.10;97.80;;;;;;5055309;28;20473;-64
2022/05/11 08:28:36;;;;;;;21.02;4.53;;;22.10;97.90;;;;;;5054251;28;20021;-63
2022/05/11 08:33:45;;;;;;;19.23;3.88;;;22.70;97.20;;;;;;5054472;28;20486;-65
2022/05/11 08:36:14;;;;;;;20.50;3.80;;;22.50;97.30;;;;;;5054989;28;20112;-65
2022/05/11 08:38:44;;;;;;;21.98;3.70;;;22.70;96.60;;;;;;5054723;28;20021;-65
2022/05/11 08:41:45;;;;;;;19.90;4.53;;;22.80;96.60;;;;;;5054705;28;20020;-63
2022/05/11 08:44:14;;;;;;;17.77;4.30;;;23.00;96.40;;;;;;5049645;28;20422;-62
2022/05/11 08:46:49;;;;;;;20.73;3.95;;;23.10;95.90;;;;;;5054890;28;20029;-62
2022/05/11 08:49:42;;;;;;;17.45;3.25;;;23.00;96.10;;;;;;5054456;28;20025;-60
2022/05/11 08:52:17;;;;;;;15.63;3.60;;;23.40;95.60;;;;;;5054828;28;20367;-62
2022/05/11 08:54:48;;;;;;;20.45;4.45;;;23.40;95.50;;;;;;5054793;28;20036;-65
2022/05/11 08:57:23;;;;;;;18.10;2.92;;;23.70;95.00;;;;;;5054847;28;20056;-65
2022/05/11 08:59:57;;;;;;;15.27;3.72;;;24.00;94.60;;;;;;5054574;28;20445;-65
2022/05/11 09:02:28;;;;;;;16.52;3.65;;;24.00;94.50;;;;;;5054563;28;20415;-66
2022/05/11 09:04:58;;;;;;;18.10;2.97;;;24.30;94.60;;;;;;5053128;28;20079;-61
2022/05/11 09:07:24;;;;;;;19.30;3.90;;;24.30;93.90;;;;;;5046092;28;20364;-65
2022/05/11 09:09:54;;;;;;;19.75;4.07;;;24.30;94.40;;;;;;5053552;28;20033;-64
2022/05/11 09:12:21;;;;;;;16.52;3.55;;;24.80;93.70;;;;;;5064215;28;20465;-64
2022/05/11 09:14:56;;;;;;;18.33;3.35;;;25.10;93.00;;;;;;5051885;28;20029;-63
2022/05/11 09:17:30;;;;;;;17.05;3.70;;;25.10;92.90;;;;;;5050744;28;20111;-64
2022/05/11 09:20:23;;;;;;;16.33;3.90;;;25.10;92.70;;;;;;5051361;28;20021;-64
2022/05/11 09:23:03;;;;;;;12.38;2.95;;;25.00;92.50;;;;;;5063044;28;20024;-63
2022/05/11 09:25:38;;;;;;;15.18;3.30;;;24.10;93.10;;;;;;5052108;28;20039;-63
2022/05/11 09:28:26;;;;;;;28.17;5.95;;;23.10;94.40;;;;;;5066115;28;20026;-62
2022/05/11 09:30:57;;;;;;;21.05;4.72;;;22.50;95.10;;;;;;5073900;28;20036;-63
2022/05/11 09:33:28;;;;;;;24.65;5.35;;;22.20;95.70;;;;;;5073924;28;20492;-62
2022/05/11 09:35:55;;;;;;;19.40;4.57;;;22.00;96.20;;;;;;5073983;28;20025;-65
2022/05/11 09:38:36;;;;;;;23.67;4.95;;;22.00;96.00;;;;;;5073788;28;20390;-62
2022/05/11 09:41:10;;;;;;;18.10;4.35;;;21.80;96.40;;;;;;5058454;28;20025;-62
2022/05/11 09:43:41;;;;;;;18.35;3.55;;;21.40;96.80;;;;;;5073479;28;20481;-64
2022/05/11 09:46:20;;;;;;;18.52;4.80;;;21.10;97.30;;;;;;5073742;28;20043;-62
2022/05/11 09:49:01;;;;;;;16.00;3.78;;;20.70;97.70;;;;;;5073723;28;20028;-62
2022/05/11 09:51:38;;;;;;;21.83;4.85;;;20.50;98.30;;;;;;5073627;28;20024;-62
2022/05/11 09:54:28;;;;;;;20.90;5.00;;;20.30;98.50;;;;;;5073165;28;20350;-63
2022/05/11 09:57:13;;;;;;;15.68;3.25;;;20.10;99.00;;;;;;5074024;28;20032;-64
2022/05/11 09:59:49;;;;;;;19.73;4.97;;;20.10;99.10;;;;;;5068283;28;20032;-62
2022/05/11 10:02:35;;;;;;;19.42;4.38;;;19.90;99.30;;;;;;5053488;28;20028;-62
2022/05/11 10:05:20;;;;;;;19.63;4.75;;;19.80;99.50;;;;;;5053569;28;20174;-63
2022/05/11 10:07:51;;;;;;;17.17;4.25;;;19.80;99.50;;;;;;5052266;28;20484;-62
2022/05/11 10:10:26;;;;;;;17.95;3.78;;;20.00;99.40;;;;;;5053528;28;20052;-62
2022/05/11 10:12:55;;;;;;;17.75;4.15;;;20.50;98.70;;;;;;5053109;28;20056;-62
2022/05/11 10:24:28;;;;;;;14.38;3.72;;;22.70;95.80;;;;;;5053062;28;20064;-62
2022/05/11 10:27:13;;;;;;;19.58;3.33;;;22.80;95.30;;;;;;5072981;28;20033;-62
2022/05/11 10:29:47;;;;;;;14.98;3.25;;;22.80;95.50;;;;;;5072960;28;20117;-62
2022/05/11 10:32:50;;;;;;;18.55;3.28;;;22.80;95.20;;;;;;5073200;28;20020;-63
2022/05/11 10:35:37;;;;;;;15.25;3.28;;;22.80;95.10;;;;;;5053024;28;20130;-62
2022/05/11 10:38:40;;;;;;;16.98;3.92;;;23.10;94.90;;;;;;5057479;28;20136;-63
2022/05/11 10:41:22;;;;;;;19.38;2.90;;;23.40;94.70;;;;;;5052880;28;20048;-66
2022/05/11 10:43:59;;;;;;;15.82;3.45;;;23.70;94.40;;;;;;5052577;28;20024;-62
2022/05/11 10:46:34;;;;;;;17.40;3.15;;;24.00;93.90;;;;;;5052922;28;20024;-62
2022/05/11 10:49:12;;;;;;;18.63;4.03;;;24.70;93.00;;;;;;5051697;28;20029;-63
2022/05/11 10:52:02;;;;;;;14.55;2.70;;;25.00;92.70;;;;;;5053129;28;20032;-62
2022/05/11 10:54:40;;;;;;;16.30;3.15;;;25.70;92.10;;;;;;5052353;28;20051;-63
2022/05/11 10:57:34;;;;;;;18.67;3.33;;;25.90;91.00;;;;;;5052898;28;20025;-63
2022/05/11 11:00:21;;;;;;;10.02;2.10;;;25.90;90.60;;;;;;5052432;28;20044;-64
2022/05/11 11:03:06;;;;;;;15.30;2.95;;;25.60;90.80;;;;;;5052258;28;20024;-63
2022/05/11 11:08:51;;;;;;;17.05;2.90;;;25.90;90.20;;;;;;5052971;28;20372;-62
2022/05/11 11:11:22;;;;;;;13.32;3.08;;;26.20;89.90;;;;;;5051934;28;20074;-64
2022/05/11 11:14:00;;;;;;;13.40;3.03;;;26.50;88.40;;;;;;5052080;28;20066;-64
2022/05/11 11:16:34;;;;;;;15.05;2.58;;;26.30;88.80;;;;;;5052496;28;20016;-63
2022/05/11 11:19:04;;;;;;;14.40;2.63;;;26.70;87.60;;;;;;5052825;28;20110;-63
2022/05/11 11:21:31;;;;;;;17.63;3.33;;;26.80;86.80;;;;;;5057709;28;20046;-64
2022/05/11 11:24:22;;;;;;;12.57;2.85;;;26.40;87.40;;;;;;5072143;28;20068;-66
2022/05/11 11:26:59;;;;;;;17.25;2.85;;;26.20;87.40;;;;;;5072368;28;20024;-62
2022/05/11 11:29:27;;;;;;;11.23;2.83;;;26.50;86.60;;;;;;5072417;28;20123;-66
2022/05/11 11:32:07;;;;;;;13.40;2.95;;;26.90;85.70;;;;;;5071936;28;20111;-65
2022/05/11 11:34:35;;;;;;;8.65;1.80;;;26.60;86.00;;;;;;5056185;28;20025;-62
2022/05/11 11:37:30;;;;;;;11.45;2.17;;;26.60;85.40;;;;;;5052709;28;20047;-62
2022/05/11 11:39:58;;;;;;;14.40;2.30;;;26.90;85.10;;;;;;5072434;28;20035;-64
2022/05/11 11:42:37;;;;;;;15.70;2.45;;;27.30;84.70;;;;;;5061562;28;20025;-63
2022/05/11 11:45:09;;;;;;;12.02;2.30;;;27.30;84.20;;;;;;5031635;28;20022;-62
2022/05/11 11:47:42;;;;;;;12.55;2.30;;;26.80;83.70;;;;;;5032240;28;20028;-62
2022/05/11 11:50:33;;;;;;;14.25;2.28;;;26.40;84.20;;;;;;5038695;28;20021;-62
2022/05/11 11:53:22;;;;;;;13.05;2.53;;;26.40;84.30;;;;;;5071680;28;20464;-62
2022/05/11 11:55:48;;;;;;;12.18;2.70;;;26.20;84.50;;;;;;5068080;28;20108;-62
2022/05/11 11:58:25;;;;;;;9.55;2.28;;;26.30;84.40;;;;;;5071820;28;20476;-62
2022/05/11 12:00:59;;;;;;;9.70;1.95;;;26.50;83.80;;;;;;5053096;28;20026;-62
2022/05/11 12:03:32;;;;;;;7.80;2.05;;;25.90;83.70;;;;;;5047571;28;20021;-68
2022/05/11 12:15:01;;;;;;;9.88;2.00;;;25.60;84.30;;;;;;5050188;28;20625;-64
2022/05/11 12:17:05;;;;;;;11.20;2.47;;;25.00;84.10;;;;;;5075081;28;20039;-62
2022/05/11 12:19:36;;;;;;;9.48;2.10;;;24.70;84.80;;;;;;5073752;28;20035;-62
2022/05/11 12:22:22;;;;;;;12.20;1.73;;;24.30;85.50;;;;;;5074856;28;20440;-61
2022/05/11 12:25:08;;;;;;;13.18;2.15;;;24.10;83.80;;;;;;5075097;28;20025;-62
2022/05/11 12:27:36;;;;;;;6.45;2.28;;;23.90;85.20;;;;;;5073535;28;20035;-62
2022/05/11 12:30:29;;;;;;;15.15;4.85;;;24.20;84.70;;;;;;5075043;28;20044;-62
2022/05/11 12:33:01;;;;;;;10.35;2.88;;;24.30;84.20;;;;;;5057983;28;20535;-62
2022/05/11 12:35:29;;;;;;;;;;;24.10;83.80;;;;;;5039274;28;20033;-62
2022/05/11 12:38:03;;;;;;;11.05;2.13;;;23.80;84.10;;;;;;5037443;28;22651;-62
2022/05/11 12:40:32;;;;;;;12.80;3.10;;;23.80;84.60;;;;;;5055029;28;20019;-62
2022/05/11 12:42:59;;;;;;;19.25;6.38;;;23.90;83.60;;;;;;5057681;28;20701;-62
2022/05/11 12:45:46;;;;;;;16.98;5.00;;;24.00;82.60;;;;;;5055127;28;20025;-61
2022/05/11 12:48:23;;;;;;;15.10;4.72;;;24.00;82.60;;;;;;5058373;28;20029;-63
2022/05/11 12:50:57;;;;;;;12.13;3.10;;;23.80;82.60;;;;;;5046396;28;20018;-63
2022/05/11 12:53:30;;;;;;;8.85;2.47;;;23.50;82.90;;;;;;5034640;28;20068;-63
2022/05/11 12:56:07;;;;;;;10.95;4.05;;;23.20;84.90;;;;;;5050708;28;20408;-66
2022/05/11 12:58:32;;;;;;;9.80;2.45;;;22.90;84.80;;;;;;5054618;28;20032;-63
2022/05/11 13:01:05;;;;;;;11.15;2.75;;;22.70;85.30;;;;;;5053502;28;20025;-64
2022/05/11 13:03:36;;;;;;;11.20;3.58;;;22.60;85.20;;;;;;5054576;28;20025;-67
2022/05/11 13:06:22;;;;;;;10.80;3.15;;;22.40;86.60;;;;;;5053763;28;20515;-65
2022/05/11 13:08:50;;;;;;;12.60;3.42;;;22.20;87.30;;;;;;5054461;28;20381;-63
2022/05/11 13:11:18;;;;;;;14.07;4.07;;;22.00;87.40;;;;;;5052486;28;20448;-63
2022/05/11 13:13:46;;;;;;;16.38;2.97;;;21.90;87.20;;;;;;5052698;28;20368;-64
2022/05/11 13:16:32;;;;;;;11.70;2.75;;;21.90;87.90;;;;;;5050893;28;20029;-65
2022/05/11 13:19:16;;;;;;;15.13;3.50;;;21.80;88.90;;;;;;5045027;28;20036;-62
2022/05/11 13:21:46;;;;;;;12.50;2.58;;;21.50;89.60;;;;;;5050536;28;20024;-62
2022/05/11 13:24:11;;;;;;;10.20;2.97;;;21.40;90.00;;;;;;5053508;28;20074;-62
2022/05/11 13:26:42;;;;;;;12.77;3.00;;;21.30;90.20;;;;;;5045160;28;20108;-62
2022/05/11 13:29:26;;;;;;;11.65;2.38;;;21.30;90.60;;;;;;5056313;28;20341;-66
2022/05/11 13:32:00;;;;;;;12.55;3.65;;;21.40;90.50;;;;;;5048792;28;20039;-63
2022/05/11 13:34:33;;;;;;;18.85;4.00;;;21.20;91.10;;;;;;5052181;28;20064;-64
2022/05/11 13:37:01;;;;;;;13.82;4.70;;;21.10;91.10;;;;;;5039930;28;20098;-62
2022/05/11 13:39:34;;;;;;;14.10;3.67;;;21.00;91.40;;;;;;5034658;28;20518;-63